createdAt,value
2023-01-05T00:02:53.676Z,1.33
2023-01-05T00:06:02.035Z,2.10
2023-01-05T00:09:08.045Z,2.20
2023-01-05T00:12:25.687Z,2.03
2023-01-05T00:15:43.658Z,2.25
2023-01-05T00:19:03.764Z,2.45
2023-01-05T00:22:25.990Z,2.38
2023-01-05T00:25:32.191Z,2.33
2023-01-05T00:28:37.876Z,2.72
2023-01-05T00:31:42.979Z,2.50
2023-01-05T00:34:54.700Z,2.03
2023-01-05T00:38:00.303Z,3.08
2023-01-05T00:41:05.845Z,2.58
2023-01-05T00:44:11.214Z,2.50
2023-01-05T00:47:17.251Z,2.35
2023-01-05T00:50:26.841Z,2.95
2023-01-05T00:53:32.514Z,2.25
2023-01-05T00:56:37.922Z,2.70
2023-01-05T00:59:43.545Z,2.33
2023-01-05T01:02:54.246Z,2.72
2023-01-05T01:06:03.354Z,2.55
2023-01-05T01:09:08.797Z,3.00
2023-01-05T01:12:14.361Z,2.55
2023-01-05T01:15:19.593Z,2.67
2023-01-05T01:18:25.125Z,2.95
2023-01-05T01:21:33.714Z,2.72
2023-01-05T01:24:39.525Z,3.13
2023-01-05T01:27:44.972Z,3.10
2023-01-05T01:30:50.098Z,3.47
2023-01-05T01:33:55.847Z,3.50
2023-01-05T01:37:03.948Z,3.15
2023-01-05T01:40:15.527Z,3.53
2023-01-05T01:43:22.627Z,3.80
2023-01-05T01:46:28.990Z,3.75
2023-01-05T01:49:34.499Z,4.18
2023-01-05T01:52:47.753Z,4.03
2023-01-05T01:55:54.141Z,4.15
2023-01-05T01:58:59.334Z,3.65
2023-01-05T02:02:06.900Z,2.95
2023-01-05T02:05:14.437Z,2.28
2023-01-05T02:08:31.443Z,2.30
2023-01-05T02:11:42.575Z,2.58
2023-01-05T02:14:58.987Z,2.47
2023-01-05T02:18:15.464Z,2.05
2023-01-05T02:21:27.369Z,3.47
2023-01-05T02:24:55.851Z,2.72
2023-01-05T02:28:08.031Z,3.10
2023-01-05T02:31:20.249Z,2.88
2023-01-05T02:34:31.962Z,2.90
2023-01-05T02:37:41.051Z,3.28
2023-01-05T02:40:48.478Z,3.42
2023-01-05T02:43:54.331Z,3.50
2023-01-05T02:47:06.053Z,3.55
2023-01-05T02:50:14.790Z,3.03
2023-01-05T02:53:23.825Z,3.42
2023-01-05T02:59:37.831Z,3.00
2023-01-05T03:02:48.613Z,3.00
2023-01-05T03:05:57.850Z,3.47
2023-01-05T03:09:05.804Z,2.85
2023-01-05T03:12:27.135Z,3.15
2023-01-05T03:15:33.420Z,3.22
2023-01-05T03:18:55.690Z,2.83
2023-01-05T03:22:15.261Z,3.35
2023-01-05T03:25:36.018Z,4.30
2023-01-05T03:28:55.281Z,3.95
2023-01-05T03:32:18.389Z,4.00
2023-01-05T03:35:34.672Z,3.78
2023-01-05T03:38:44.449Z,4.00
2023-01-05T03:41:51.688Z,3.90
2023-01-05T03:44:57.238Z,3.65
2023-01-05T03:48:06.061Z,3.20
2023-01-05T03:51:14.149Z,3.10
2023-01-05T03:54:19.999Z,3.15
2023-01-05T03:57:26.121Z,3.05
2023-01-05T04:00:33.208Z,2.53
2023-01-05T04:03:42.394Z,3.10
2023-01-05T04:06:50.653Z,2.88
2023-01-05T04:09:56.571Z,3.13
2023-01-05T04:13:01.773Z,2.63
2023-01-05T04:16:08.024Z,2.80
2023-01-05T04:19:15.686Z,2.55
2023-01-05T04:22:27.375Z,2.75
2023-01-05T04:25:34.115Z,2.33
2023-01-05T04:28:50.634Z,2.60
2023-01-05T04:31:59.218Z,2.80
2023-01-05T04:35:10.883Z,2.40
2023-01-05T04:38:21.582Z,2.70
2023-01-05T04:41:27.783Z,2.90
2023-01-05T04:44:34.202Z,2.80
2023-01-05T04:47:42.517Z,2.92
2023-01-05T04:50:55.102Z,2.60
2023-01-05T04:54:09.148Z,2.90
2023-01-05T04:57:14.658Z,2.88
2023-01-05T05:00:20.610Z,2.63
2023-01-05T05:03:32.965Z,2.80
2023-01-05T05:06:39.762Z,3.15
2023-01-05T05:09:48.320Z,3.70
2023-01-05T05:12:54.334Z,3.05
2023-01-05T05:16:01.232Z,2.80
2023-01-05T05:19:08.651Z,2.88
2023-01-05T05:22:14.648Z,2.78
2023-01-05T05:25:22.702Z,3.42
2023-01-05T05:28:29.746Z,2.90
2023-01-05T05:31:35.098Z,3.00
2023-01-05T05:34:40.788Z,2.63
2023-01-05T05:37:50.050Z,3.03
2023-01-05T05:41:01.282Z,3.10
2023-01-05T05:47:12.055Z,3.05
2023-01-05T05:50:17.553Z,2.92
2023-01-05T05:53:25.648Z,3.47
2023-01-05T05:56:33.622Z,3.50
2023-01-05T05:59:38.945Z,3.10
2023-01-05T06:02:44.315Z,2.55
2023-01-05T06:05:49.817Z,2.63
2023-01-05T06:08:55.057Z,3.03
2023-01-05T06:12:03.199Z,2.83
2023-01-05T06:15:09.102Z,3.25
2023-01-05T06:18:14.922Z,3.28
2023-01-05T06:21:21.630Z,3.28
2023-01-05T06:24:27.008Z,3.40
2023-01-05T06:27:34.830Z,3.10
2023-01-05T06:30:40.324Z,2.92
2023-01-05T06:33:45.728Z,2.50
2023-01-05T06:36:51.103Z,2.20
2023-01-05T06:39:57.207Z,3.00
2023-01-05T06:43:05.265Z,2.70
2023-01-05T06:46:10.881Z,3.00
2023-01-05T06:49:16.370Z,4.00
2023-01-05T06:52:21.400Z,3.50
2023-01-05T06:55:27.174Z,3.10
2023-01-05T06:58:34.981Z,3.50
2023-01-05T07:01:40.485Z,3.55
2023-01-05T07:04:45.731Z,3.80
2023-01-05T07:07:50.967Z,3.58
2023-01-05T07:10:56.517Z,3.30
2023-01-05T07:14:04.618Z,3.60
2023-01-05T07:17:09.915Z,3.00
2023-01-05T07:20:15.326Z,3.60
2023-01-05T07:23:20.756Z,2.63
2023-01-05T07:26:26.038Z,3.40
2023-01-05T07:29:34.016Z,3.03
2023-01-05T07:32:39.619Z,3.33
2023-01-05T07:35:44.979Z,2.95
2023-01-05T07:38:50.551Z,3.03
2023-01-05T07:41:55.763Z,3.65
2023-01-05T07:45:06.475Z,3.38
2023-01-05T07:48:12.203Z,3.65
2023-01-05T07:51:18.334Z,3.75
2023-01-05T07:54:23.926Z,3.53
2023-01-05T07:57:29.514Z,3.72
2023-01-05T08:00:37.884Z,3.90
2023-01-05T08:03:43.540Z,3.97
2023-01-05T08:06:48.993Z,4.10
2023-01-05T08:10:06.343Z,4.18
2023-01-05T08:13:25.125Z,4.22
2023-01-05T08:16:34.556Z,6.10
2023-01-05T08:19:40.251Z,5.60
2023-01-05T08:22:45.393Z,4.82
2023-01-05T08:25:50.681Z,5.78
2023-01-05T08:28:56.575Z,6.22
2023-01-05T08:32:04.247Z,4.60
2023-01-05T08:35:10.295Z,5.28
2023-01-05T08:38:15.906Z,4.93
2023-01-05T08:41:22.173Z,5.00
2023-01-05T08:44:27.270Z,5.25
2023-01-05T08:47:35.127Z,4.88
2023-01-05T08:50:40.454Z,4.82
2023-01-05T08:53:45.703Z,4.70
2023-01-05T08:56:51.164Z,4.97
2023-01-05T08:59:56.979Z,4.75
2023-01-05T09:03:04.751Z,4.53
2023-01-05T09:06:12.391Z,4.45
2023-01-05T09:09:17.959Z,2.75
2023-01-05T09:12:25.783Z,4.50
2023-01-05T09:15:34.884Z,3.78
2023-01-05T09:18:43.563Z,4.45
2023-01-05T09:21:48.993Z,4.88
2023-01-05T09:24:54.552Z,4.20
2023-01-05T09:28:00.107Z,4.65
2023-01-05T09:31:09.674Z,4.75
2023-01-05T09:34:19.267Z,4.55
2023-01-05T09:37:24.572Z,3.20
2023-01-05T09:40:30.825Z,3.70
2023-01-05T09:43:38.394Z,3.70
2023-01-05T09:46:46.012Z,3.30
2023-01-05T09:49:54.551Z,3.90
2023-01-05T09:56:04.663Z,3.40
2023-01-05T09:59:13.937Z,3.35
2023-01-05T10:02:29.628Z,2.90
2023-01-05T10:05:40.269Z,3.25
2023-01-05T10:08:47.676Z,3.05
2023-01-05T10:12:07.340Z,2.88
2023-01-05T10:15:15.599Z,3.03
2023-01-05T10:18:22.057Z,2.97
2023-01-05T10:21:33.589Z,2.95
2023-01-05T10:24:45.482Z,2.85
2023-01-05T10:27:56.879Z,3.33
2023-01-05T10:31:02.940Z,3.33
2023-01-05T10:34:16.329Z,3.22
2023-01-05T10:37:28.919Z,3.17
2023-01-05T10:40:42.154Z,2.60
2023-01-05T10:43:56.623Z,2.78
2023-01-05T10:47:02.370Z,2.60
2023-01-05T10:50:21.291Z,2.63
2023-01-05T10:53:30.589Z,2.80
2023-01-05T10:56:36.131Z,2.88
2023-01-05T10:59:57.012Z,3.40
2023-01-05T11:03:07.719Z,3.13
2023-01-05T11:06:21.798Z,2.88
2023-01-05T11:09:30.208Z,2.90
2023-01-05T11:15:44.209Z,3.58
2023-01-05T11:18:51.453Z,3.20
2023-01-05T11:22:01.904Z,3.17
2023-01-05T11:25:22.967Z,3.20
2023-01-05T11:28:29.844Z,3.55
2023-01-05T11:31:43.089Z,3.38
2023-01-05T11:34:49.513Z,3.03
2023-01-05T11:37:54.750Z,3.63
2023-01-05T11:41:03.942Z,3.17
2023-01-05T11:44:09.690Z,3.65
2023-01-05T11:47:21.975Z,3.80
2023-01-05T11:50:29.025Z,3.25
2023-01-05T11:53:41.647Z,3.38
2023-01-05T11:56:49.507Z,3.60
2023-01-05T11:59:56.013Z,3.55
2023-01-05T12:03:16.395Z,3.58
2023-01-05T12:06:28.543Z,3.88
2023-01-05T12:09:35.789Z,3.88
2023-01-05T12:12:51.964Z,2.80
2023-01-05T12:16:15.358Z,3.03
2023-01-05T12:19:29.789Z,3.42
2023-01-05T12:22:41.686Z,3.35
2023-01-05T12:25:52.721Z,3.08
2023-01-05T12:36:15.212Z,3.28
2023-01-05T12:39:32.150Z,3.38
2023-01-05T12:42:47.825Z,2.85
2023-01-05T12:46:10.806Z,3.40
2023-01-05T12:49:18.784Z,2.78
2023-01-05T12:52:29.421Z,4.03
2023-01-05T12:55:37.098Z,3.20
2023-01-05T12:58:46.727Z,4.15
2023-01-05T13:02:02.964Z,3.33
2023-01-05T13:05:10.530Z,3.22
2023-01-05T13:08:18.311Z,3.25
2023-01-05T13:11:25.458Z,2.95
2023-01-05T13:14:31.940Z,3.40
2023-01-05T13:17:41.820Z,4.10
2023-01-05T13:20:48.851Z,3.95
2023-01-05T13:23:55.115Z,3.85
2023-01-05T13:27:02.463Z,3.30
2023-01-05T13:30:09.373Z,3.70
2023-01-05T13:33:29.097Z,4.18
2023-01-05T13:36:46.228Z,3.50
2023-01-05T13:39:58.734Z,3.53
2023-01-05T13:43:11.173Z,3.50
2023-01-05T13:46:26.925Z,2.72
2023-01-05T13:49:56.116Z,3.17
2023-01-05T13:53:07.176Z,3.50
2023-01-05T13:56:16.431Z,3.63
2023-01-05T13:59:35.177Z,3.05
2023-01-05T14:02:46.910Z,3.20
2023-01-05T14:05:53.930Z,3.70
2023-01-05T14:12:44.825Z,3.92
2023-01-05T14:15:49.926Z,3.38
2023-01-05T14:18:55.928Z,3.35
2023-01-05T14:22:16.283Z,3.47
2023-01-05T14:25:37.026Z,4.00
2023-01-05T14:28:51.317Z,3.83
2023-01-05T14:31:59.703Z,3.75
2023-01-05T14:35:09.967Z,3.60
2023-01-05T14:38:20.733Z,3.30
2023-01-05T14:41:27.209Z,3.70
2023-01-05T14:44:34.427Z,3.03
2023-01-05T14:47:44.476Z,3.38
2023-01-05T14:50:50.096Z,3.40
2023-01-05T14:53:56.380Z,2.90
2023-01-05T14:57:19.514Z,3.50
2023-01-05T15:00:39.647Z,3.35
2023-01-05T15:03:50.570Z,2.92
2023-01-05T15:07:09.897Z,3.25
2023-01-05T15:10:20.950Z,2.50
2023-01-05T15:13:43.771Z,3.17
2023-01-05T15:17:00.495Z,3.20
2023-01-05T15:20:29.695Z,4.00
2023-01-05T15:23:53.226Z,3.92
2023-01-05T15:27:06.193Z,3.58
2023-01-05T15:30:26.738Z,4.35
2023-01-05T15:33:34.723Z,3.83
2023-01-05T15:39:52.362Z,3.35
2023-01-05T15:42:58.088Z,2.78
2023-01-05T15:46:04.448Z,4.07
2023-01-05T15:49:09.989Z,3.95
2023-01-05T15:52:21.941Z,4.85
2023-01-05T15:55:30.927Z,3.13
2023-01-05T15:58:37.119Z,3.35
2023-01-05T16:01:42.117Z,3.67
2023-01-05T16:04:47.256Z,3.55
2023-01-05T16:07:57.885Z,3.85
2023-01-05T16:11:07.337Z,4.03
2023-01-05T16:14:19.431Z,4.00
2023-01-05T16:17:26.448Z,4.90
2023-01-05T16:20:32.727Z,4.33
2023-01-05T16:23:39.734Z,4.22
2023-01-05T16:26:47.793Z,4.23
2023-01-05T16:29:53.866Z,4.32
2023-01-05T16:32:59.674Z,5.15
2023-01-05T16:36:13.277Z,4.28
2023-01-05T16:39:25.352Z,4.60
2023-01-05T16:42:40.670Z,3.92
2023-01-05T16:45:46.327Z,4.22
2023-01-05T16:48:54.135Z,4.35
2023-01-05T16:52:00.186Z,4.93
2023-01-05T16:55:27.689Z,5.03
2023-01-05T16:58:40.017Z,5.03
2023-01-05T17:01:47.217Z,5.18
2023-01-05T17:04:52.529Z,4.83
2023-01-05T17:08:01.493Z,4.90
2023-01-05T17:11:07.632Z,4.43
2023-01-05T17:14:17.038Z,4.80
2023-01-05T17:17:22.048Z,5.20
2023-01-05T17:20:28.285Z,5.18
2023-01-05T17:23:36.867Z,5.32
2023-01-05T17:26:43.840Z,5.65
2023-01-05T17:29:53.368Z,5.95
2023-01-05T17:32:59.154Z,5.60
2023-01-05T17:36:05.516Z,5.70
2023-01-05T17:39:11.144Z,5.78
2023-01-05T17:42:28.743Z,5.57
2023-01-05T17:45:37.384Z,6.70
2023-01-05T17:48:42.748Z,5.55
2023-01-05T17:51:47.880Z,7.20
2023-01-05T17:54:53.422Z,5.93
2023-01-05T17:57:58.843Z,6.43
2023-01-05T18:01:08.735Z,6.85
2023-01-05T18:04:14.001Z,5.95
2023-01-05T18:07:19.313Z,5.55
2023-01-05T18:10:27.029Z,7.18
2023-01-05T18:13:35.137Z,5.88
2023-01-05T18:16:46.606Z,6.57
2023-01-05T18:19:52.027Z,6.72
2023-01-05T18:22:57.487Z,6.50
2023-01-05T18:26:05.158Z,6.90
2023-01-05T18:29:10.215Z,5.88
2023-01-05T18:32:19.485Z,6.07
2023-01-05T18:35:24.860Z,6.47
2023-01-05T18:38:30.372Z,5.95
2023-01-05T18:41:35.814Z,6.63
2023-01-05T18:44:43.243Z,6.20
2023-01-05T18:47:51.418Z,6.67
2023-01-05T18:50:56.742Z,6.68
2023-01-05T18:54:02.053Z,6.13
2023-01-05T18:57:07.754Z,6.22
2023-01-05T19:00:14.042Z,7.25
2023-01-05T19:03:22.009Z,6.90
2023-01-05T19:06:28.175Z,6.90
2023-01-05T19:09:33.586Z,6.55
2023-01-05T19:12:39.219Z,6.90
2023-01-05T19:15:44.537Z,6.88
2023-01-05T19:18:58.674Z,6.85
2023-01-05T19:22:04.112Z,6.78
2023-01-05T19:25:09.604Z,6.20
2023-01-05T19:28:14.973Z,5.70
2023-01-05T19:31:23.663Z,6.18
2023-01-05T19:34:32.067Z,6.47
2023-01-05T19:37:38.718Z,5.93
2023-01-05T19:40:44.082Z,6.00
2023-01-05T19:43:50.802Z,5.68
2023-01-05T19:46:56.240Z,5.78
2023-01-05T19:50:04.548Z,4.97
2023-01-05T19:53:10.029Z,5.07
2023-01-05T19:56:16.478Z,4.72
2023-01-05T19:59:23.003Z,5.13
2023-01-05T20:02:28.917Z,4.75
2023-01-05T20:05:37.141Z,4.85
2023-01-05T20:08:43.150Z,4.05
2023-01-05T20:11:51.705Z,4.40
2023-01-05T20:14:58.899Z,3.90
2023-01-05T20:18:04.136Z,3.63
2023-01-05T20:21:12.499Z,5.00
2023-01-05T20:24:18.792Z,3.83
2023-01-05T20:27:24.330Z,3.63
2023-01-05T20:30:29.348Z,4.20
2023-01-05T20:33:35.310Z,4.07
2023-01-05T20:36:43.370Z,3.75
2023-01-05T20:39:49.001Z,4.55
2023-01-05T20:42:54.378Z,2.95
2023-01-05T20:45:59.992Z,3.03
2023-01-05T20:49:05.401Z,3.85
2023-01-05T20:52:13.770Z,3.17
2023-01-05T20:55:19.725Z,3.90
2023-01-05T20:58:25.074Z,5.32
2023-01-05T21:01:30.691Z,3.35
2023-01-05T21:04:36.092Z,3.88
2023-01-05T21:07:44.085Z,3.90
2023-01-05T21:10:49.593Z,3.95
2023-01-05T21:13:56.353Z,4.63
2023-01-05T21:17:01.671Z,2.83
2023-01-05T21:20:08.732Z,4.45
2023-01-05T21:23:16.618Z,3.97
2023-01-05T21:29:26.837Z,4.18
2023-01-05T21:32:32.435Z,4.22
2023-01-05T21:35:37.699Z,3.05
2023-01-05T21:39:01.826Z,3.75
2023-01-05T21:42:21.176Z,3.88
2023-01-05T21:45:27.134Z,3.78
2023-01-05T21:48:32.611Z,3.78
2023-01-05T21:51:50.260Z,3.42
2023-01-05T21:55:10.730Z,3.30
2023-01-05T21:58:16.342Z,3.53
2023-01-05T22:01:21.615Z,3.10
2023-01-05T22:04:27.184Z,3.45
2023-01-05T22:07:32.563Z,3.70
2023-01-05T22:10:40.536Z,3.08
2023-01-05T22:13:46.747Z,3.45
2023-01-05T22:16:52.059Z,3.47
2023-01-05T22:19:57.857Z,3.38
2023-01-05T22:23:03.125Z,3.75
2023-01-05T22:26:12.517Z,4.05
2023-01-05T22:29:19.125Z,3.90
2023-01-05T22:32:24.715Z,3.53
2023-01-05T22:35:29.964Z,3.40
2023-01-05T22:38:36.778Z,3.03
2023-01-05T22:41:45.876Z,3.78
2023-01-05T22:44:51.249Z,3.47
2023-01-05T22:47:56.364Z,3.30
2023-01-05T22:51:05.003Z,3.28
2023-01-05T22:54:10.831Z,3.10
2023-01-05T22:57:18.937Z,3.20
2023-01-05T23:00:24.423Z,2.78
2023-01-05T23:03:30.134Z,2.70
2023-01-05T23:06:35.963Z,2.75
2023-01-05T23:09:41.174Z,2.92
2023-01-05T23:12:49.097Z,3.45
2023-01-05T23:15:56.043Z,4.03
2023-01-05T23:19:01.674Z,2.60
2023-01-05T23:22:07.017Z,3.05
2023-01-05T23:25:12.554Z,2.85
2023-01-05T23:28:21.089Z,2.67
2023-01-05T23:31:26.759Z,2.53
2023-01-05T23:34:32.597Z,3.45
2023-01-05T23:37:38.077Z,3.22
2023-01-05T23:40:43.851Z,3.22
2023-01-05T23:43:52.129Z,2.35
2023-01-05T23:46:57.437Z,3.15
2023-01-05T23:50:02.981Z,3.13
2023-01-05T23:53:08.594Z,2.45
2023-01-05T23:56:14.884Z,2.35
2023-01-05T23:59:23.219Z,3.77
